Time;durP1;ratioP1;P1;durP2;ratioP2;P2;SDS_P1;SDS_P2;PMS_P1;PMS_P2;Temp;Humidity;BMP_temperature;BMP_pressure;BME280_temperature;BME280_humidity;BME280_pressure;Samples;Min_cycle;Max_cycle;Signal;HPM_P1;HPM_P2
2023/05/18 00:00:39;;;;;;;3.63;0.77;;;8.20;99.90;;;;;;5087616;28;20028;-68
2023/05/18 00:03:05;;;;;;;4.65;0.70;;;8.20;99.90;;;;;;5093243;28;20032;-69
2023/05/18 00:05:32;;;;;;;6.38;1.10;;;8.20;99.90;;;;;;5092704;28;20133;-71
2023/05/18 00:08:01;;;;;;;6.00;0.93;;;8.20;99.90;;;;;;5094156;28;20038;-68
2023/05/18 00:10:27;;;;;;;7.65;1.17;;;8.20;99.90;;;;;;5084565;28;20050;-69
2023/05/18 00:12:59;;;;;;;6.85;0.80;;;8.10;99.90;;;;;;5097138;28;20096;-68
2023/05/18 00:15:25;;;;;;;4.57;0.68;;;8.10;99.90;;;;;;5087978;28;20149;-71
2023/05/18 00:17:52;;;;;;;6.32;1.85;;;8.10;99.90;;;;;;5089807;28;20131;-71
2023/05/18 00:20:20;;;;;;;3.38;0.77;;;8.10;99.90;;;;;;5086274;28;20174;-70
2023/05/18 00:22:49;;;;;;;6.10;1.38;;;8.10;99.90;;;;;;5088791;28;20443;-68
2023/05/18 00:25:17;;;;;;;3.67;1.98;;;8.10;99.90;;;;;;5083432;28;20035;-68
2023/05/18 00:27:43;;;;;;;3.22;0.40;;;8.10;99.90;;;;;;5086039;28;20506;-69
2023/05/18 00:30:12;;;;;;;4.22;0.55;;;8.00;99.90;;;;;;5087869;28;20158;-69
2023/05/18 00:32:38;;;;;;;6.40;0.73;;;8.10;99.90;;;;;;5088181;28;20563;-69
2023/05/18 00:35:04;;;;;;;9.18;0.80;;;8.00;99.90;;;;;;5090154;28;20131;-72
2023/05/18 00:37:29;;;;;;;6.82;0.93;;;8.00;99.90;;;;;;5089318;28;20040;-69
2023/05/18 00:39:55;;;;;;;3.17;0.90;;;8.00;99.90;;;;;;5085354;28;20655;-69
2023/05/18 00:42:21;;;;;;;5.97;0.73;;;8.00;99.90;;;;;;5092692;28;20031;-69
2023/05/18 00:44:49;;;;;;;3.85;0.63;;;7.90;99.90;;;;;;5095751;28;20040;-70
2023/05/18 00:47:14;;;;;;;2.70;0.73;;;7.90;99.90;;;;;;5091744;28;20294;-69
2023/05/18 00:49:40;;;;;;;2.63;0.68;;;7.90;99.90;;;;;;5101084;28;20028;-69
2023/05/18 00:52:06;;;;;;;7.88;1.23;;;7.90;99.90;;;;;;5095451;27;20035;-69
2023/05/18 00:54:33;;;;;;;2.35;0.65;;;7.90;99.90;;;;;;5091569;28;20044;-71
2023/05/18 00:57:07;;;;;;;5.95;0.80;;;7.80;99.90;;;;;;5088747;28;20024;-69
2023/05/18 00:59:33;;;;;;;7.15;0.95;;;7.80;99.90;;;;;;5088333;28;20039;-69
2023/05/18 01:02:00;;;;;;;14.00;1.88;;;7.80;99.90;;;;;;5091372;28;20634;-69
2023/05/18 01:04:26;;;;;;;4.10;0.70;;;7.90;99.90;;;;;;5093225;28;20081;-70
2023/05/18 01:06:55;;;;;;;6.10;1.27;;;7.90;99.90;;;;;;5089477;28;20059;-69
2023/05/18 01:09:22;;;;;;;3.20;0.77;;;7.90;99.90;;;;;;5087622;28;20244;-68
2023/05/18 01:11:53;;;;;;;6.45;2.25;;;7.80;99.90;;;;;;5096511;27;20024;-69
2023/05/18 01:14:30;;;;;;;7.13;1.05;;;7.80;99.90;;;;;;5083211;28;20073;-71
2023/05/18 01:17:11;;;;;;;3.45;0.50;;;7.80;99.90;;;;;;5084947;28;20043;-69
2023/05/18 01:20:09;;;;;;;3.97;1.00;;;7.80;99.90;;;;;;5095968;28;20247;-71
2023/05/18 01:23:12;;;;;;;6.45;0.90;;;7.80;99.90;;;;;;5083454;28;20103;-70
2023/05/18 01:25:53;;;;;;;7.75;1.00;;;7.80;99.90;;;;;;5084657;28;20127;-71
2023/05/18 01:28:31;;;;;;;3.95;0.85;;;7.70;99.90;;;;;;5086101;28;20107;-69
2023/05/18 01:30:57;;;;;;;3.33;0.60;;;7.70;99.90;;;;;;5087394;28;20039;-70
2023/05/18 01:33:28;;;;;;;3.35;0.88;;;7.70;99.90;;;;;;5090430;28;20106;-69
2023/05/18 01:35:54;;;;;;;8.23;1.25;;;7.70;99.90;;;;;;5098703;28;20059;-69
2023/05/18 01:38:25;;;;;;;8.18;0.90;;;7.70;99.90;;;;;;5087901;28;20195;-69
2023/05/18 01:41:13;;;;;;;2.33;0.70;;;7.70;99.90;;;;;;5090552;28;20024;-69
2023/05/18 01:43:49;;;;;;;12.73;0.70;;;7.70;99.90;;;;;;5093037;28;20114;-69
2023/05/18 01:46:33;;;;;;;4.70;1.05;;;7.70;99.90;;;;;;5091500;28;20048;-69
2023/05/18 01:49:14;;;;;;;3.92;0.82;;;7.70;99.90;;;;;;5088045;28;20620;-70
2023/05/18 01:51:45;;;;;;;4.57;0.70;;;7.70;99.90;;;;;;5086236;28;20604;-68
2023/05/18 01:54:18;;;;;;;6.60;0.95;;;7.70;99.90;;;;;;5091951;27;20044;-73
2023/05/18 01:56:47;;;;;;;4.20;0.80;;;7.70;99.90;;;;;;5093898;28;20440;-69
2023/05/18 01:59:14;;;;;;;3.38;0.73;;;7.70;99.90;;;;;;5096886;28;20024;-70
2023/05/18 02:01:39;;;;;;;9.55;2.25;;;7.80;99.90;;;;;;5095249;28;20089;-70
2023/05/18 02:04:14;;;;;;;4.47;0.70;;;7.80;99.90;;;;;;5091808;28;20392;-69
2023/05/18 02:06:40;;;;;;;7.03;1.17;;;7.80;99.90;;;;;;5092890;28;20038;-69
2023/05/18 02:09:05;;;;;;;8.30;1.23;;;7.80;99.90;;;;;;5090984;28;20458;-70
2023/05/18 02:11:31;;;;;;;4.55;0.90;;;7.80;99.90;;;;;;5088950;28;21417;-69
2023/05/18 02:13:57;;;;;;;3.95;0.93;;;7.70;99.90;;;;;;5089994;28;20028;-68
2023/05/18 02:16:25;;;;;;;6.20;1.02;;;7.80;99.90;;;;;;5094338;28;20038;-69
2023/05/18 02:18:54;;;;;;;4.85;0.95;;;7.80;99.90;;;;;;5090456;28;20078;-69
2023/05/18 02:21:21;;;;;;;6.13;1.50;;;7.70;99.90;;;;;;5089014;28;20612;-69
2023/05/18 02:23:46;;;;;;;5.03;0.70;;;7.70;99.90;;;;;;5091154;28;20028;-71
2023/05/18 02:26:12;;;;;;;5.25;0.80;;;7.70;99.90;;;;;;5093478;28;20038;-71
2023/05/18 02:28:43;;;;;;;5.03;0.80;;;7.70;99.90;;;;;;5091262;28;20027;-68
2023/05/18 02:31:10;;;;;;;3.53;0.88;;;7.70;99.90;;;;;;5094474;28;20056;-72
2023/05/18 02:33:38;;;;;;;9.82;0.80;;;7.60;99.90;;;;;;5090674;27;20106;-67
2023/05/18 02:36:06;;;;;;;6.72;1.02;;;7.60;99.90;;;;;;5089719;28;20028;-69
2023/05/18 02:38:31;;;;;;;9.85;0.98;;;7.60;99.90;;;;;;5092078;28;20074;-68
2023/05/18 02:40:57;;;;;;;7.45;0.90;;;7.60;99.90;;;;;;5092687;28;20016;-69
2023/05/18 02:43:22;;;;;;;3.72;0.60;;;7.60;99.90;;;;;;5090855;28;20640;-68
2023/05/18 02:45:48;;;;;;;5.45;1.30;;;7.60;99.90;;;;;;5089469;28;20464;-69
2023/05/18 02:48:13;;;;;;;9.60;1.08;;;7.50;99.90;;;;;;5090511;28;20023;-70
2023/05/18 02:50:39;;;;;;;6.43;1.38;;;7.50;99.90;;;;;;5086609;28;20395;-69
2023/05/18 02:53:04;;;;;;;5.40;0.90;;;7.50;99.90;;;;;;5094695;28;20036;-67
2023/05/18 02:55:33;;;;;;;4.30;0.80;;;7.50;99.90;;;;;;5091313;28;20423;-69
2023/05/18 02:58:05;;;;;;;10.38;1.45;;;7.50;99.90;;;;;;5095543;28;20039;-69
2023/05/18 03:00:30;;;;;;;11.02;1.48;;;7.50;99.90;;;;;;5092685;28;20059;-69
2023/05/18 03:02:56;;;;;;;4.20;1.10;;;7.50;99.90;;;;;;5093115;28;20059;-70
2023/05/18 03:05:22;;;;;;;7.70;0.80;;;7.50;99.90;;;;;;5089947;28;20040;-69
2023/05/18 03:07:49;;;;;;;5.65;1.15;;;7.40;99.90;;;;;;5097096;28;20024;-69
2023/05/18 03:10:16;;;;;;;1.83;0.80;;;7.40;99.90;;;;;;5097834;28;20115;-68
2023/05/18 03:12:44;;;;;;;4.22;1.27;;;7.50;99.90;;;;;;5089477;28;20080;-69
2023/05/18 03:15:12;;;;;;;5.95;1.55;;;7.40;99.90;;;;;;5089788;28;20643;-69
2023/05/18 03:17:58;;;;;;;7.32;0.93;;;7.40;99.90;;;;;;5091307;28;20043;-68
2023/05/18 03:20:25;;;;;;;3.95;0.80;;;7.40;99.90;;;;;;5091070;28;20040;-70
2023/05/18 03:22:51;;;;;;;8.40;1.27;;;7.30;99.90;;;;;;5095545;28;20020;-70
2023/05/18 03:25:19;;;;;;;8.02;1.42;;;7.30;99.90;;;;;;5091581;28;20054;-70
2023/05/18 03:27:45;;;;;;;3.28;1.33;;;7.30;99.90;;;;;;5090028;28;20032;-69
2023/05/18 03:30:11;;;;;;;6.15;1.15;;;7.20;99.90;;;;;;5093311;28;20035;-68
2023/05/18 03:32:37;;;;;;;4.63;1.20;;;7.20;99.90;;;;;;5088861;28;20420;-74
2023/05/18 03:35:03;;;;;;;6.07;1.55;;;7.20;99.90;;;;;;5089904;28;20076;-70
2023/05/18 03:37:29;;;;;;;5.75;1.02;;;7.10;99.90;;;;;;5094443;28;20035;-69
2023/05/18 03:39:59;;;;;;;5.78;1.80;;;7.20;99.90;;;;;;5088122;28;20032;-69
2023/05/18 03:42:30;;;;;;;6.25;1.25;;;7.10;99.90;;;;;;5093315;28;20133;-70
2023/05/18 03:44:59;;;;;;;7.22;0.93;;;7.10;99.90;;;;;;5089835;28;20071;-69
2023/05/18 03:47:25;;;;;;;7.70;1.05;;;7.10;99.90;;;;;;5089728;28;20082;-69
2023/05/18 03:49:54;;;;;;;7.40;1.08;;;7.00;99.90;;;;;;5091995;28;20039;-70
2023/05/18 03:52:21;;;;;;;10.00;1.13;;;7.00;99.90;;;;;;5090330;28;20395;-69
2023/05/18 03:54:48;;;;;;;4.47;1.05;;;7.00;99.90;;;;;;5096718;28;20031;-68
2023/05/18 03:57:15;;;;;;;4.97;0.85;;;7.00;99.90;;;;;;5087855;28;20093;-69
2023/05/18 03:59:40;;;;;;;6.90;0.80;;;7.00;99.90;;;;;;5096564;28;20155;-69
2023/05/18 04:02:06;;;;;;;4.70;1.13;;;7.00;99.90;;;;;;5092611;28;20051;-69
2023/05/18 04:04:32;;;;;;;6.30;1.20;;;7.00;99.90;;;;;;5094095;28;20093;-69
2023/05/18 04:07:04;;;;;;;3.45;1.00;;;7.00;99.90;;;;;;5093098;28;20028;-69
2023/05/18 04:09:31;;;;;;;8.77;1.23;;;7.00;99.90;;;;;;5092093;28;20097;-69
2023/05/18 04:12:01;;;;;;;8.45;1.27;;;7.00;99.90;;;;;;5094756;28;20113;-69
2023/05/18 04:14:27;;;;;;;9.52;0.95;;;7.00;99.90;;;;;;5093792;28;20408;-69
2023/05/18 04:16:57;;;;;;;6.68;0.85;;;7.00;99.90;;;;;;5096409;28;20024;-69
2023/05/18 04:19:22;;;;;;;8.10;1.05;;;7.00;99.90;;;;;;5095633;27;20047;-71
2023/05/18 04:21:48;;;;;;;7.30;1.20;;;7.10;99.90;;;;;;5097945;28;20035;-70
2023/05/18 04:24:15;;;;;;;8.60;0.88;;;7.10;99.90;;;;;;5099279;28;20047;-71
2023/05/18 04:26:41;;;;;;;8.05;2.05;;;7.10;99.90;;;;;;5097203;28;20586;-70
2023/05/18 04:29:09;;;;;;;4.90;1.30;;;7.10;99.90;;;;;;5097144;28;20044;-70
2023/05/18 04:31:40;;;;;;;5.32;1.38;;;7.10;99.90;;;;;;5090520;28;20035;-69
2023/05/18 04:34:09;;;;;;;4.55;1.00;;;7.10;99.90;;;;;;5087776;28;20107;-70
2023/05/18 04:36:38;;;;;;;5.25;0.95;;;7.10;99.90;;;;;;5095227;28;20035;-69
2023/05/18 04:39:06;;;;;;;7.63;1.10;;;7.10;99.90;;;;;;5095473;28;20084;-69
2023/05/18 04:41:35;;;;;;;4.95;1.25;;;7.20;99.90;;;;;;5090557;28;20036;-70
2023/05/18 04:44:09;;;;;;;10.57;2.15;;;7.20;99.90;;;;;;5089237;28;20105;-70
2023/05/18 04:46:41;;;;;;;7.47;1.00;;;7.30;99.90;;;;;;5082640;28;20512;-69
2023/05/18 04:49:08;;;;;;;8.48;1.40;;;7.40;99.90;;;;;;5097218;27;20064;-70
2023/05/18 04:51:36;;;;;;;4.03;0.98;;;7.40;99.90;;;;;;5094497;28;20060;-70
2023/05/18 04:54:02;;;;;;;6.53;0.88;;;7.50;99.90;;;;;;5089994;28;20028;-69
2023/05/18 04:56:28;;;;;;;6.35;1.27;;;7.50;99.90;;;;;;5087903;28;20108;-69
2023/05/18 04:58:58;;;;;;;13.20;2.28;;;7.60;99.90;;;;;;5092530;28;20032;-69
2023/05/18 05:01:24;;;;;;;6.10;1.40;;;7.70;99.90;;;;;;5096928;28;20036;-70
2023/05/18 05:03:49;;;;;;;4.97;1.05;;;7.70;99.90;;;;;;5093790;28;20369;-69
2023/05/18 05:06:15;;;;;;;9.82;2.25;;;7.80;99.90;;;;;;5087676;28;20050;-70
2023/05/18 05:08:44;;;;;;;5.15;1.05;;;7.90;99.90;;;;;;5090665;28;20028;-69
2023/05/18 05:11:10;;;;;;;4.60;0.75;;;8.00;99.90;;;;;;5096492;28;20113;-70
2023/05/18 05:13:35;;;;;;;6.07;1.63;;;8.00;99.90;;;;;;5090811;28;20036;-70
2023/05/18 05:16:02;;;;;;;7.75;0.82;;;8.10;99.90;;;;;;5095018;28;20028;-70
2023/05/18 05:18:30;;;;;;;6.60;1.17;;;8.20;99.90;;;;;;5086936;28;20076;-69
2023/05/18 05:20:55;;;;;;;5.03;0.80;;;8.20;99.90;;;;;;5088587;28;20032;-70
2023/05/18 05:23:24;;;;;;;7.05;1.88;;;8.20;99.90;;;;;;5086386;28;20093;-69
2023/05/18 05:25:49;;;;;;;4.32;0.85;;;8.20;99.90;;;;;;5088560;28;20035;-69
2023/05/18 05:28:15;;;;;;;6.97;1.70;;;8.30;99.90;;;;;;5087543;27;20032;-69
2023/05/18 05:30:41;;;;;;;5.22;1.23;;;8.30;99.90;;;;;;5091770;28;20032;-70
2023/05/18 05:33:06;;;;;;;5.70;1.45;;;8.30;99.90;;;;;;5088967;28;20032;-69
2023/05/18 05:35:32;;;;;;;10.73;1.55;;;8.40;99.90;;;;;;5094309;28;20044;-68
2023/05/18 05:38:00;;;;;;;8.30;2.03;;;8.50;99.90;;;;;;5088385;28;20021;-69
2023/05/18 05:40:29;;;;;;;10.40;1.30;;;8.50;99.90;;;;;;5100320;27;20054;-69
2023/05/18 05:42:57;;;;;;;7.10;1.52;;;8.60;99.90;;;;;;5097665;28;20036;-69
2023/05/18 05:45:23;;;;;;;3.50;0.80;;;8.60;99.90;;;;;;5091926;28;20718;-69
2023/05/18 05:47:49;;;;;;;8.25;1.17;;;8.80;99.90;;;;;;5092870;28;20027;-68
2023/05/18 05:50:15;;;;;;;5.32;0.95;;;9.00;99.90;;;;;;5096251;27;20051;-68
2023/05/18 05:52:40;;;;;;;5.47;1.23;;;9.00;99.90;;;;;;5100414;27;20023;-69
2023/05/18 05:55:09;;;;;;;5.00;0.82;;;9.10;99.90;;;;;;5096299;27;20036;-70
2023/05/18 05:57:35;;;;;;;4.57;0.80;;;9.30;99.90;;;;;;5089897;28;20032;-69
2023/05/18 06:00:02;;;;;;;3.33;0.70;;;9.70;99.90;;;;;;5089348;28;20519;-69
2023/05/18 06:02:27;;;;;;;11.18;1.38;;;10.00;99.90;;;;;;5089797;28;20031;-69
2023/05/18 06:04:59;;;;;;;4.68;0.80;;;10.60;99.90;;;;;;5093533;28;20039;-69
2023/05/18 06:07:25;;;;;;;2.92;0.60;;;11.50;99.90;;;;;;5093223;28;20043;-69
2023/05/18 06:09:50;;;;;;;4.43;0.82;;;12.80;98.80;;;;;;5092335;28;20027;-68
2023/05/18 06:12:16;;;;;;;10.18;1.00;;;13.60;97.20;;;;;;5088903;28;20028;-69
2023/05/18 06:14:41;;;;;;;4.38;0.55;;;14.70;96.10;;;;;;5090414;28;20047;-70
2023/05/18 06:17:07;;;;;;;5.35;0.70;;;15.20;94.10;;;;;;5091814;28;20032;-71
2023/05/18 06:19:32;;;;;;;3.67;1.10;;;16.20;93.70;;;;;;5096271;28;20414;-72
2023/05/18 06:21:58;;;;;;;7.88;0.80;;;16.60;92.50;;;;;;5091031;28;20506;-71
2023/05/18 06:24:24;;;;;;;3.90;1.20;;;16.70;91.20;;;;;;5088918;28;20043;-70
2023/05/18 06:26:49;;;;;;;3.88;1.10;;;17.40;91.00;;;;;;5090458;28;20036;-71
2023/05/18 06:29:15;;;;;;;5.32;0.90;;;17.70;89.90;;;;;;5090770;28;20112;-70
2023/05/18 06:31:40;;;;;;;3.30;0.90;;;18.00;88.90;;;;;;5094133;28;20577;-69
2023/05/18 06:34:09;;;;;;;8.30;0.90;;;18.00;90.00;;;;;;5088922;28;20857;-69
2023/05/18 06:36:37;;;;;;;4.50;0.77;;;18.40;89.50;;;;;;5094459;27;20096;-68
2023/05/18 06:39:04;;;;;;;6.13;0.98;;;18.40;86.20;;;;;;5092164;28;20039;-70
2023/05/18 06:41:30;;;;;;;5.80;1.45;;;18.60;86.20;;;;;;5092147;28;20024;-68
2023/05/18 06:44:02;;;;;;;2.08;0.80;;;18.70;86.40;;;;;;5092845;28;20395;-68
2023/05/18 06:46:30;;;;;;;6.45;1.00;;;19.40;85.00;;;;;;5117820;27;20039;-70
2023/05/18 06:48:56;;;;;;;6.13;0.98;;;20.00;84.00;;;;;;5094199;28;20020;-70
2023/05/18 06:51:21;;;;;;;3.80;0.93;;;20.60;81.60;;;;;;5096284;28;20039;-70
2023/05/18 06:53:53;;;;;;;7.35;1.10;;;21.10;81.90;;;;;;5094407;28;20031;-70
2023/05/18 06:56:21;;;;;;;6.90;1.63;;;21.30;79.30;;;;;;5092676;28;20036;-71
2023/05/18 06:58:49;;;;;;;6.05;1.05;;;20.20;81.80;;;;;;5092633;28;20028;-69
2023/05/18 07:01:16;;;;;;;4.20;1.00;;;19.30;82.20;;;;;;5088171;28;20110;-69
2023/05/18 07:03:42;;;;;;;4.82;0.88;;;18.70;82.90;;;;;;5092435;28;20024;-69
2023/05/18 07:06:08;;;;;;;4.43;0.75;;;18.30;84.00;;;;;;5089438;28;20024;-69
2023/05/18 07:08:35;;;;;;;3.92;0.55;;;18.00;85.00;;;;;;5085582;28;20464;-70
2023/05/18 07:11:02;;;;;;;7.47;1.30;;;17.30;84.80;;;;;;5084379;28;20036;-70
2023/05/18 07:13:27;;;;;;;6.25;1.05;;;16.90;84.90;;;;;;5089519;28;20047;-69
2023/05/18 07:15:53;;;;;;;3.80;1.00;;;16.60;84.60;;;;;;5087138;28;20032;-69
2023/05/18 07:18:18;;;;;;;3.10;0.55;;;16.10;86.30;;;;;;5088413;28;20048;-70
2023/05/18 07:20:44;;;;;;;3.92;0.65;;;15.80;88.10;;;;;;5086927;28;20035;-70
2023/05/18 07:23:09;;;;;;;5.68;1.00;;;15.40;87.50;;;;;;5090692;28;20043;-70
2023/05/18 07:25:35;;;;;;;3.78;0.60;;;15.00;88.70;;;;;;5085537;28;20544;-70
2023/05/18 07:28:01;;;;;;;10.98;1.13;;;14.60;90.40;;;;;;5088380;28;20024;-71
2023/05/18 07:30:26;;;;;;;3.55;0.57;;;14.40;90.00;;;;;;5085293;28;20070;-70
2023/05/18 07:32:52;;;;;;;4.53;1.02;;;14.10;90.80;;;;;;5091687;28;20053;-70
2023/05/18 07:35:19;;;;;;;7.25;0.70;;;13.90;91.30;;;;;;5085715;28;20067;-71
2023/05/18 07:37:45;;;;;;;6.20;0.90;;;13.70;91.40;;;;;;5089841;28;20088;-70
2023/05/18 07:40:11;;;;;;;3.58;0.73;;;13.60;92.20;;;;;;5087006;28;20404;-69
2023/05/18 07:42:38;;;;;;;6.88;0.80;;;13.60;91.50;;;;;;5096324;28;20051;-69
2023/05/18 07:45:05;;;;;;;2.88;0.70;;;13.70;91.70;;;;;;5091960;28;20557;-70
2023/05/18 07:47:30;;;;;;;12.63;0.77;;;13.60;93.10;;;;;;5084884;28;20059;-71
2023/05/18 07:49:56;;;;;;;4.40;1.15;;;13.70;92.10;;;;;;5092596;28;20052;-69
2023/05/18 07:52:21;;;;;;;2.35;0.60;;;13.90;92.30;;;;;;5095650;28;20035;-70
2023/05/18 07:54:54;;;;;;;5.80;0.60;;;13.80;92.20;;;;;;5098096;28;20085;-69
2023/05/18 07:57:20;;;;;;;9.00;0.50;;;14.00;92.10;;;;;;5089858;28;20032;-70
2023/05/18 07:59:48;;;;;;;2.95;1.02;;;14.20;92.10;;;;;;5097492;28;20287;-69
2023/05/18 08:02:18;;;;;;;5.63;0.70;;;14.10;91.20;;;;;;5097229;28;20032;-70
2023/05/18 08:04:50;;;;;;;6.18;0.82;;;14.20;91.70;;;;;;5092824;28;20039;-69
2023/05/18 08:07:20;;;;;;;7.63;1.20;;;14.20;92.20;;;;;;5094474;28;20502;-70
2023/05/18 08:09:48;;;;;;;2.60;0.60;;;14.20;91.90;;;;;;5097550;28;20070;-70
2023/05/18 08:12:14;;;;;;;3.88;0.55;;;14.40;92.20;;;;;;5094038;28;20111;-70
2023/05/18 08:14:39;;;;;;;4.97;0.90;;;14.50;91.60;;;;;;5092454;28;20162;-70
2023/05/18 08:17:06;;;;;;;2.47;0.73;;;14.50;91.80;;;;;;5098240;28;20032;-69
2023/05/18 08:19:31;;;;;;;3.55;0.70;;;14.40;91.40;;;;;;5096031;28;20036;-69
2023/05/18 08:21:57;;;;;;;5.78;0.57;;;14.30;92.00;;;;;;5094623;28;20039;-69
2023/05/18 08:24:23;;;;;;;6.57;1.02;;;14.20;92.20;;;;;;5099535;27;20127;-69
2023/05/18 08:26:56;;;;;;;3.80;1.00;;;14.20;93.00;;;;;;5096924;28;20796;-70
2023/05/18 08:29:30;;;;;;;6.90;1.52;;;14.20;92.40;;;;;;5098728;27;20027;-70
2023/05/18 08:31:56;;;;;;;2.00;0.63;;;14.40;92.80;;;;;;5092031;28;20042;-71
2023/05/18 08:34:28;;;;;;;11.98;1.75;;;14.40;92.10;;;;;;5077642;28;20119;-69
2023/05/18 08:36:54;;;;;;;2.85;0.40;;;14.40;92.00;;;;;;5095889;28;20149;-70
2023/05/18 08:39:21;;;;;;;3.03;0.80;;;14.30;91.90;;;;;;5093560;28;20373;-68
2023/05/18 08:42:16;;;;;;;6.53;0.52;;;14.30;91.60;;;;;;5089144;28;20043;-69
2023/05/18 08:45:00;;;;;;;12.63;1.33;;;14.40;91.50;;;;;;5074774;28;20051;-69
2023/05/18 08:47:28;;;;;;;4.82;1.15;;;14.20;91.20;;;;;;5089543;28;20043;-70
2023/05/18 08:49:56;;;;;;;6.95;0.80;;;14.10;91.60;;;;;;5091766;28;20066;-69
2023/05/18 08:52:26;;;;;;;3.65;0.70;;;14.00;91.60;;;;;;5088992;28;20164;-70
2023/05/18 08:54:58;;;;;;;4.05;1.02;;;13.90;91.90;;;;;;5087541;28;20119;-69
2023/05/18 08:57:26;;;;;;;16.63;1.05;;;13.90;92.10;;;;;;5087359;28;20043;-69
2023/05/18 08:59:53;;;;;;;9.98;1.23;;;13.90;91.90;;;;;;5084246;28;20391;-74
2023/05/18 09:02:18;;;;;;;3.83;1.45;;;13.90;92.30;;;;;;5087501;28;20039;-69
2023/05/18 09:04:45;;;;;;;5.30;1.77;;;14.00;91.70;;;;;;5087307;28;20036;-71
2023/05/18 09:07:14;;;;;;;6.88;0.65;;;14.00;92.00;;;;;;5090213;28;20055;-69
2023/05/18 09:09:46;;;;;;;4.73;0.80;;;14.00;91.90;;;;;;5093219;28;20035;-72
2023/05/18 09:12:13;;;;;;;8.00;0.70;;;14.00;91.80;;;;;;5086736;28;20089;-70
2023/05/18 09:14:41;;;;;;;3.08;0.57;;;13.90;92.30;;;;;;5087449;28;20496;-71
2023/05/18 09:17:07;;;;;;;4.70;0.95;;;13.80;92.30;;;;;;5092428;28;20096;-70
2023/05/18 09:19:33;;;;;;;4.53;0.75;;;13.90;92.00;;;;;;5088418;28;21037;-72
2023/05/18 09:21:59;;;;;;;3.40;0.95;;;13.90;92.40;;;;;;5092568;28;20035;-70
2023/05/18 09:24:25;;;;;;;4.97;0.50;;;14.00;92.00;;;;;;5089465;28;20097;-68
2023/05/18 09:26:50;;;;;;;3.28;0.65;;;14.00;91.90;;;;;;5089790;28;20068;-68
2023/05/18 09:29:18;;;;;;;6.00;0.93;;;14.10;91.70;;;;;;5091532;28;20500;-69
2023/05/18 09:31:52;;;;;;;5.22;1.15;;;14.20;91.50;;;;;;5092228;28;20028;-69
2023/05/18 09:34:18;;;;;;;5.75;0.50;;;14.20;91.70;;;;;;5087765;28;20036;-71
2023/05/18 09:36:48;;;;;;;3.50;0.60;;;14.10;91.30;;;;;;5090630;28;20088;-72
2023/05/18 09:39:14;;;;;;;4.93;0.80;;;14.20;91.90;;;;;;5090384;28;20089;-69
2023/05/18 09:41:40;;;;;;;5.40;0.75;;;14.40;91.80;;;;;;5094196;28;20307;-69
2023/05/18 09:44:08;;;;;;;8.50;0.93;;;14.60;90.90;;;;;;5090868;28;20059;-68
2023/05/18 09:46:40;;;;;;;7.53;0.68;;;14.60;91.50;;;;;;5088351;28;20047;-68
2023/05/18 09:49:06;;;;;;;5.43;0.93;;;14.80;91.00;;;;;;5088480;28;20131;-68
2023/05/18 09:51:36;;;;;;;5.43;1.67;;;14.80;91.60;;;;;;5086762;28;20025;-72
2023/05/18 09:54:04;;;;;;;5.25;0.77;;;14.90;91.40;;;;;;5088661;28;20105;-69
2023/05/18 09:56:30;;;;;;;4.57;0.93;;;14.90;91.20;;;;;;5092162;28;20036;-70
2023/05/18 09:59:11;;;;;;;6.40;0.90;;;14.90;91.20;;;;;;5091899;28;20035;-69
2023/05/18 10:01:53;;;;;;;5.65;0.50;;;15.20;91.10;;;;;;5080793;28;20056;-71
2023/05/18 10:04:20;;;;;;;4.18;0.82;;;15.20;90.60;;;;;;5090708;28;20040;-70
2023/05/18 10:06:49;;;;;;;2.88;0.70;;;15.10;91.00;;;;;;5090053;28;20028;-70
2023/05/18 10:09:15;;;;;;;2.80;0.43;;;15.10;90.80;;;;;;5089587;28;20064;-69
2023/05/18 10:11:41;;;;;;;7.35;0.60;;;15.30;90.30;;;;;;5093476;28;20460;-71
2023/05/18 10:14:10;;;;;;;3.83;1.00;;;15.50;89.90;;;;;;5094095;28;20036;-69
2023/05/18 10:16:36;;;;;;;4.47;0.77;;;15.40;90.40;;;;;;5088706;28;20028;-70
2023/05/18 10:19:05;;;;;;;4.45;0.75;;;15.30;90.70;;;;;;5089230;28;20054;-69
2023/05/18 10:21:33;;;;;;;5.32;1.27;;;15.20;90.60;;;;;;5086522;28;20152;-70
2023/05/18 10:24:02;;;;;;;4.78;0.77;;;15.20;90.60;;;;;;5090968;28;20016;-68
2023/05/18 10:26:33;;;;;;;7.68;1.23;;;14.90;90.60;;;;;;5087147;28;20535;-70
2023/05/18 10:28:59;;;;;;;5.07;0.73;;;14.90;91.10;;;;;;5096575;28;20156;-71
2023/05/18 10:31:29;;;;;;;4.97;0.65;;;14.90;91.00;;;;;;5089987;28;20495;-70
2023/05/18 10:33:59;;;;;;;5.53;0.80;;;14.90;91.50;;;;;;5088071;28;20078;-70
2023/05/18 10:36:30;;;;;;;7.55;0.85;;;14.90;91.20;;;;;;5087581;28;20032;-68
2023/05/18 10:38:59;;;;;;;5.57;1.58;;;14.80;91.10;;;;;;5096761;28;20190;-72
2023/05/18 10:41:25;;;;;;;4.03;1.00;;;14.90;91.30;;;;;;5092761;28;20047;-70
2023/05/18 10:43:54;;;;;;;6.85;1.02;;;15.00;92.30;;;;;;5092239;28;20027;-69
2023/05/18 10:46:25;;;;;;;6.43;0.93;;;15.20;92.00;;;;;;5092727;28;20054;-71
2023/05/18 10:48:59;;;;;;;3.33;0.80;;;15.20;91.50;;;;;;5091157;28;20036;-70
2023/05/18 10:51:27;;;;;;;2.50;0.65;;;15.10;91.30;;;;;;5083965;28;20041;-69
2023/05/18 10:53:53;;;;;;;2.28;0.75;;;15.20;91.50;;;;;;5091478;28;20031;-69
2023/05/18 10:56:19;;;;;;;7.28;1.38;;;15.40;91.50;;;;;;5085733;28;20399;-71
2023/05/18 10:58:45;;;;;;;4.93;0.85;;;15.40;91.40;;;;;;5088401;28;20486;-70
2023/05/18 11:01:12;;;;;;;8.82;0.60;;;15.50;90.90;;;;;;5089322;28;20036;-69
2023/05/18 11:03:40;;;;;;;2.95;0.80;;;15.70;91.40;;;;;;5088607;28;20024;-69
2023/05/18 11:06:22;;;;;;;2.95;0.80;;;15.80;91.30;;;;;;5088797;28;20036;-69
2023/05/18 11:08:49;;;;;;;3.50;0.85;;;15.80;91.20;;;;;;5086088;28;20036;-70
2023/05/18 11:11:30;;;;;;;6.82;1.20;;;15.80;91.10;;;;;;5085796;28;20062;-69
2023/05/18 11:14:02;;;;;;;2.38;0.50;;;15.90;91.50;;;;;;5086913;28;20080;-70
2023/05/18 11:16:41;;;;;;;5.38;0.80;;;16.00;91.50;;;;;;5089281;28;20775;-71
2023/05/18 11:19:10;;;;;;;4.15;0.70;;;16.00;90.70;;;;;;5096926;28;20114;-70
2023/05/18 11:21:40;;;;;;;5.97;0.95;;;16.10;90.70;;;;;;5095721;28;20028;-69
2023/05/18 11:24:18;;;;;;;6.50;1.45;;;16.20;91.00;;;;;;5086325;28;20039;-72
2023/05/18 11:26:56;;;;;;;3.90;1.00;;;16.20;91.20;;;;;;5116314;27;20089;-70
2023/05/18 11:29:28;;;;;;;5.47;0.75;;;16.10;91.20;;;;;;5089066;28;20373;-71
2023/05/18 11:31:57;;;;;;;4.15;0.70;;;16.20;90.80;;;;;;5090133;28;20034;-70
2023/05/18 11:34:48;;;;;;;4.75;0.80;;;16.30;90.30;;;;;;5085107;28;20526;-70
2023/05/18 11:37:45;;;;;;;2.78;0.65;;;16.20;90.30;;;;;;5088448;28;20089;-72
2023/05/18 11:40:32;;;;;;;8.27;0.93;;;16.20;90.50;;;;;;5086234;28;20024;-70
2023/05/18 11:42:58;;;;;;;1.95;0.70;;;16.20;91.30;;;;;;5087515;28;20132;-69
2023/05/18 11:45:32;;;;;;;3.47;0.70;;;16.20;91.00;;;;;;5091548;28;20076;-69
2023/05/18 11:48:01;;;;;;;8.63;0.90;;;16.30;91.30;;;;;;5089950;28;20043;-69
2023/05/18 11:50:29;;;;;;;4.97;1.33;;;16.10;90.80;;;;;;5093718;28;20399;-70
2023/05/18 11:52:58;;;;;;;5.63;0.98;;;16.10;90.90;;;;;;5090552;28;20063;-70
2023/05/18 11:55:39;;;;;;;3.63;0.60;;;16.20;91.00;;;;;;5091081;28;20075;-69
2023/05/18 11:58:07;;;;;;;4.25;1.42;;;16.20;89.20;;;;;;5096946;28;20032;-69
2023/05/18 12:00:34;;;;;;;6.25;0.85;;;16.20;90.60;;;;;;5089643;28;20024;-71
2023/05/18 12:03:00;;;;;;;5.43;0.50;;;16.00;90.50;;;;;;5091572;28;20039;-70
2023/05/18 12:05:30;;;;;;;3.90;0.75;;;15.90;90.70;;;;;;5090379;28;20044;-70
2023/05/18 12:07:56;;;;;;;9.18;1.02;;;15.60;90.80;;;;;;5089883;28;20032;-71
2023/05/18 12:10:33;;;;;;;7.53;1.08;;;15.50;90.50;;;;;;5088931;28;20107;-71
2023/05/18 12:13:03;;;;;;;2.60;0.80;;;15.40;90.90;;;;;;5092264;28;20040;-72
2023/05/18 12:15:30;;;;;;;13.32;0.70;;;15.40;90.70;;;;;;5088334;28;20044;-70
2023/05/18 12:17:57;;;;;;;5.28;1.17;;;15.50;91.20;;;;;;5092323;28;20047;-72
2023/05/18 12:20:24;;;;;;;6.63;0.80;;;15.50;91.00;;;;;;5081636;28;20041;-69
2023/05/18 12:22:52;;;;;;;6.03;1.10;;;15.50;90.50;;;;;;5093908;28;20657;-69
2023/05/18 12:25:19;;;;;;;6.20;1.20;;;15.60;90.90;;;;;;5089988;28;20036;-69
2023/05/18 12:27:46;;;;;;;6.93;0.82;;;15.50;90.80;;;;;;5089455;28;20036;-69
2023/05/18 12:30:20;;;;;;;4.55;0.85;;;15.60;90.90;;;;;;5090123;28;20032;-69
2023/05/18 12:32:56;;;;;;;3.00;0.80;;;15.60;91.20;;;;;;5085940;28;20085;-71
2023/05/18 12:35:22;;;;;;;4.05;0.70;;;15.50;90.60;;;;;;5088329;28;20028;-69
2023/05/18 12:37:48;;;;;;;6.20;1.05;;;15.50;90.80;;;;;;5091095;28;20119;-69
2023/05/18 12:40:15;;;;;;;4.78;0.98;;;15.40;90.60;;;;;;5094800;28;20555;-73
2023/05/18 12:42:55;;;;;;;4.10;1.17;;;15.50;91.20;;;;;;5094184;28;20044;-72
2023/05/18 12:45:32;;;;;;;6.97;0.65;;;15.50;91.30;;;;;;5092532;28;20128;-69
2023/05/18 12:48:13;;;;;;;7.38;0.85;;;15.60;91.60;;;;;;5096084;28;20059;-71
2023/05/18 12:50:52;;;;;;;80.97;7.38;;;15.60;91.40;;;;;;5089459;28;20039;-70
2023/05/18 12:53:18;;;;;;;2.90;0.93;;;15.60;91.20;;;;;;5088336;28;20059;-69
2023/05/18 12:55:58;;;;;;;8.02;1.25;;;15.50;91.10;;;;;;5100918;28;20032;-71
2023/05/18 12:58:31;;;;;;;3.47;1.00;;;15.50;91.40;;;;;;5093558;28;20051;-69